Time;durP1;ratioP1;P1;durP2;ratioP2;P2;SDS_P1;SDS_P2;PMS_P1;PMS_P2;Temp;Humidity;BMP_temperature;BMP_pressure;BME280_temperature;BME280_humidity;BME280_pressure;Samples;Min_cycle;Max_cycle;Signal;HPM_P1;HPM_P2
2023/07/05 00:00:41;;;;;;;7.63;6.82;;;;;23.50;99630.00;;;;2064422;28;20663;-67
2023/07/05 00:01:41;;;;;;;7.50;6.70;;;;;23.50;99621.00;;;;2061550;28;20218;-67
2023/07/05 00:02:42;;;;;;;7.40;6.70;;;;;23.50;99621.00;;;;2046518;28;20219;-67
2023/07/05 00:03:42;;;;;;;7.90;7.20;;;;;23.50;99620.00;;;;2065559;28;20295;-67
2023/07/05 00:04:42;;;;;;;7.40;6.70;;;;;23.50;99612.00;;;;2060103;28;20270;-67
2023/07/05 00:05:43;;;;;;;8.10;6.63;;;;;23.50;99607.00;;;;2063629;28;20247;-67
2023/07/05 00:06:43;;;;;;;6.60;6.00;;;;;23.50;99605.00;;;;2068902;28;20221;-67
2023/07/05 00:07:43;;;;;;;7.37;6.40;;;;;23.50;99601.00;;;;2046815;28;20212;-67
2023/07/05 00:08:44;;;;;;;8.20;6.27;;;;;23.50;99596.00;;;;2062929;28;20773;-67
2023/07/05 00:09:44;;;;;;;7.17;6.47;;;;;23.50;99600.00;;;;2066916;28;20210;-67
2023/07/05 00:10:45;;;;;;;6.90;6.20;;;;;23.50;99594.00;;;;2057897;28;20242;-67
2023/07/05 00:11:46;;;;;;;7.10;6.40;;;;;23.50;99587.00;;;;2068760;28;20926;-67
2023/07/05 00:12:46;;;;;;;7.65;6.30;;;;;23.50;99598.00;;;;2051352;28;20489;-67
2023/07/05 00:13:47;;;;;;;6.83;6.23;;;;;23.50;99598.00;;;;2060075;28;20211;-67
2023/07/05 00:14:47;;;;;;;7.20;6.30;;;;;23.50;99598.00;;;;2060673;28;20233;-67
2023/07/05 00:15:48;;;;;;;6.23;5.67;;;;;23.50;99579.00;;;;2062092;28;20223;-67
2023/07/05 00:16:48;;;;;;;5.90;5.40;;;;;23.50;99586.00;;;;2061814;28;20301;-67
2023/07/05 00:17:52;;;;;;;6.00;5.40;;;;;23.50;99586.00;;;;2037645;28;20255;-67
2023/07/05 00:18:52;;;;;;;6.75;6.15;;;;;23.50;99570.00;;;;2057166;28;20298;-67
2023/07/05 00:19:53;;;;;;;9.03;6.17;;;;;23.50;99573.00;;;;2063122;28;20273;-67
2023/07/05 00:20:53;;;;;;;7.57;6.47;;;;;23.50;99569.00;;;;2062585;28;20210;-67
2023/07/05 00:21:53;;;;;;;6.20;5.60;;;;;23.50;99570.00;;;;2047368;28;20783;-67
2023/07/05 00:22:54;;;;;;;6.77;5.67;;;;;23.50;99575.00;;;;2043348;28;20216;-67
2023/07/05 00:23:54;;;;;;;6.07;5.40;;;;;23.50;99562.00;;;;2056679;28;20278;-67
2023/07/05 00:24:55;;;;;;;6.57;5.47;;;;;23.50;99568.00;;;;2065845;28;20207;-67
2023/07/05 00:25:55;;;;;;;6.60;5.80;;;;;23.50;99563.00;;;;2064006;28;20214;-67
2023/07/05 00:26:55;;;;;;;6.70;5.70;;;;;23.50;99567.00;;;;2056973;28;20588;-67
2023/07/05 00:27:56;;;;;;;6.83;5.80;;;;;23.50;99572.00;;;;2052306;28;20249;-67
2023/07/05 00:28:56;;;;;;;5.97;4.80;;;;;23.50;99554.00;;;;2059605;28;20207;-67
2023/07/05 00:29:56;;;;;;;6.20;5.40;;;;;23.50;99554.00;;;;2061396;28;20214;-67
2023/07/05 00:30:57;;;;;;;7.93;5.90;;;;;23.50;99557.00;;;;2059133;28;20252;-67
2023/07/05 00:31:57;;;;;;;5.97;5.37;;;;;23.50;99549.00;;;;2060633;28;20691;-67
2023/07/05 00:32:57;;;;;;;5.60;4.90;;;;;23.50;99556.00;;;;2058911;28;20714;-67
2023/07/05 00:33:58;;;;;;;8.73;5.70;;;;;23.50;99551.00;;;;2062950;28;20225;-67
2023/07/05 00:34:58;;;;;;;6.30;5.47;;;;;23.50;99553.00;;;;2063122;28;20242;-67
2023/07/05 00:35:58;;;;;;;6.80;5.63;;;;;23.50;99571.00;;;;2063334;28;20218;-67
2023/07/05 00:36:59;;;;;;;5.50;4.90;;;;;23.50;99570.00;;;;2064130;28;20212;-67
2023/07/05 00:37:59;;;;;;;6.03;5.20;;;;;23.50;99561.00;;;;2051383;28;20698;-67
2023/07/05 00:38:59;;;;;;;6.33;5.20;;;;;23.50;99569.00;;;;2055105;28;20809;-67
2023/07/05 00:40:00;;;;;;;7.30;5.40;;;;;23.50;99554.00;;;;2064120;28;20235;-66
2023/07/05 00:41:00;;;;;;;5.60;5.07;;;;;23.50;99551.00;;;;2067306;28;20220;-66
2023/07/05 00:42:00;;;;;;;5.17;4.67;;;;;23.50;99550.00;;;;2070829;28;20226;-66
2023/07/05 00:43:00;;;;;;;6.40;5.30;;;;;23.50;99547.00;;;;2058690;28;20217;-66
2023/07/05 00:44:01;;;;;;;8.87;5.37;;;;;23.50;99545.00;;;;2063287;28;20211;-66
2023/07/05 00:45:10;;;;;;;5.23;4.63;;;;;23.50;99533.00;;;;2064175;28;20211;-66
2023/07/05 00:46:15;;;;;;;6.13;4.85;;;;;23.50;99538.00;;;;2065201;28;20224;-66
2023/07/05 00:47:25;;;;;;;5.55;4.90;;;;;23.50;99539.00;;;;2061329;28;20245;-66
2023/07/05 00:48:35;;;;;;;5.22;4.72;;;;;23.50;99507.00;;;;2058964;28;20284;-66
2023/07/05 00:49:37;;;;;;;5.85;4.93;;;;;23.50;99516.00;;;;2048138;28;20322;-66
2023/07/05 00:50:38;;;;;;;5.40;4.90;;;;;23.50;99501.00;;;;2054601;28;20208;-66
2023/07/05 00:51:47;;;;;;;9.00;5.30;;;;;23.50;99520.00;;;;2049486;28;20247;-66
2023/07/05 00:52:48;;;;;;;5.35;4.85;;;;;23.50;99519.00;;;;2040973;28;20729;-66
2023/07/05 00:53:48;;;;;;;5.80;4.73;;;;;23.50;99519.00;;;;2064184;28;20217;-66
2023/07/05 00:54:50;;;;;;;5.63;4.47;;;;;23.50;99513.00;;;;2063948;28;20211;-66
2023/07/05 00:55:53;;;;;;;5.60;5.00;;;;;23.50;99516.00;;;;2058127;28;20876;-66
2023/07/05 00:57:07;;;;;;;5.80;4.72;;;;;23.50;99516.00;;;;2053180;28;20278;-66
2023/07/05 00:58:08;;;;;;;4.90;4.25;;;;;23.50;99500.00;;;;2045573;28;20289;-66
2023/07/05 00:59:08;;;;;;;5.20;4.30;;;;;23.50;99504.00;;;;2055210;28;20208;-66
2023/07/05 01:00:15;;;;;;;5.20;4.47;;;;;23.50;99509.00;;;;2051230;28;20235;-66
2023/07/05 01:01:16;;;;;;;4.93;3.90;;;;;23.50;99502.00;;;;2048384;28;20221;-66
2023/07/05 01:02:16;;;;;;;4.87;4.47;;;;;23.50;99493.00;;;;2050651;28;20314;-66
2023/07/05 01:03:20;;;;;;;4.40;4.00;;;;;23.50;99492.00;;;;2067962;28;20297;-66
2023/07/05 01:04:20;;;;;;;4.38;3.97;;;;;23.50;99502.00;;;;2057407;28;20218;-66
2023/07/05 01:05:21;;;;;;;4.40;3.70;;;;;23.50;99496.00;;;;2050056;28;20220;-66
2023/07/05 01:06:22;;;;;;;5.43;4.43;;;;;23.50;99494.00;;;;2063237;28;20221;-67
2023/07/05 01:07:22;;;;;;;5.03;4.10;;;;;23.50;99491.00;;;;2033819;28;20228;-67
2023/07/05 01:08:23;;;;;;;5.10;4.60;;;;;23.50;99496.00;;;;2044998;29;20271;-67
2023/07/05 01:09:26;;;;;;;4.53;4.00;;;;;23.50;99487.00;;;;2061495;28;20207;-67
2023/07/05 01:10:26;;;;;;;6.00;4.45;;;;;23.50;99496.00;;;;2058198;28;20443;-67
2023/07/05 01:11:29;;;;;;;4.90;4.40;;;;;23.50;99458.00;;;;2063265;28;20854;-67
2023/07/05 01:12:45;;;;;;;5.30;4.68;;;;;23.50;99489.00;;;;2052800;28;20215;-67
2023/07/05 01:13:54;;;;;;;7.07;4.70;;;;;23.50;99484.00;;;;2047255;28;20648;-67
2023/07/05 01:15:10;;;;;;;4.70;3.95;;;;;23.50;99481.00;;;;2048865;28;20231;-67
2023/07/05 01:16:28;;;;;;;4.65;4.25;;;;;23.50;99476.00;;;;2039274;28;20286;-67
2023/07/05 01:17:40;;;;;;;4.40;3.88;;;;;23.50;99473.00;;;;2037393;28;20240;-67
2023/07/05 01:18:54;;;;;;;4.45;4.05;;;;;23.50;99468.00;;;;2055754;28;20223;-67
2023/07/05 01:19:57;;;;;;;5.20;4.05;;;;;23.50;99474.00;;;;2060317;28;20624;-67
2023/07/05 01:21:03;;;;;;;5.38;3.95;;;;;23.50;99468.00;;;;2061632;28;20291;-67
2023/07/05 01:22:06;;;;;;;6.78;4.43;;;;;23.40;99466.00;;;;2064696;28;20211;-67
2023/07/05 01:23:20;;;;;;;4.40;3.85;;;;;23.50;99475.00;;;;2043807;28;20243;-67
2023/07/05 01:25:15;;;;;;;4.93;3.90;;;;;23.50;99453.00;;;;2041449;28;20216;-67
2023/07/05 01:26:24;;;;;;;5.00;4.50;;;;;23.50;99452.00;;;;2041342;28;20592;-67
2023/07/05 01:27:58;;;;;;;4.88;3.70;;;;;23.50;99445.00;;;;2034146;28;20228;-67
2023/07/05 01:29:20;;;;;;;3.75;3.20;;;;;23.50;99453.00;;;;2060213;28;20215;-67
2023/07/05 01:30:34;;;;;;;4.32;3.40;;;;;23.50;99441.00;;;;2066907;28;20257;-67
2023/07/05 01:31:49;;;;;;;4.22;3.83;;;;;23.50;99448.00;;;;2062334;28;20210;-67
2023/07/05 01:32:53;;;;;;;3.90;3.25;;;;;23.50;99445.00;;;;2052907;28;20315;-67
2023/07/05 01:34:14;;;;;;;4.15;3.75;;;;;23.50;99441.00;;;;2060616;28;20374;-67
2023/07/05 01:35:18;;;;;;;5.78;3.42;;;;;23.50;99449.00;;;;2057138;28;20222;-67
2023/07/05 01:36:19;;;;;;;3.97;3.58;;;;;23.50;99447.00;;;;2051320;28;20223;-67
2023/07/05 01:37:40;;;;;;;4.27;3.30;;;;;23.50;99444.00;;;;2040071;28;20216;-67
2023/07/05 01:38:40;;;;;;;4.00;3.58;;;;;23.40;99439.00;;;;2051097;28;20208;-67
2023/07/05 01:39:40;;;;;;;4.73;3.33;;;;;23.50;99428.00;;;;2055716;28;20207;-67
2023/07/05 01:40:43;;;;;;;5.00;3.30;;;;;23.50;99437.00;;;;2062796;28;20234;-67
2023/07/05 01:41:44;;;;;;;3.83;3.20;;;;;23.50;99434.00;;;;2055971;28;20255;-67
2023/07/05 01:42:44;;;;;;;4.30;3.30;;;;;23.50;99433.00;;;;2050374;28;20261;-67
2023/07/05 01:43:47;;;;;;;4.50;3.57;;;;;23.50;99432.00;;;;2062922;28;20298;-67
2023/07/05 01:44:47;;;;;;;5.60;3.47;;;;;23.40;99432.00;;;;2053238;28;20211;-67
2023/07/05 01:46:02;;;;;;;4.00;3.47;;;;;23.40;99413.00;;;;2059911;28;20211;-67
2023/07/05 01:47:31;;;;;;;4.13;3.55;;;;;23.50;99416.00;;;;2056385;28;20246;-67
2023/07/05 01:49:13;;;;;;;5.55;3.20;;;;;23.50;99407.00;;;;2055682;28;20225;-67
2023/07/05 01:50:25;;;;;;;3.85;2.92;;;;;23.40;99414.00;;;;2029660;29;20260;-67
2023/07/05 01:51:58;;;;;;;3.10;2.80;;;;;23.40;99405.00;;;;2049424;28;20594;-67
2023/07/05 01:53:31;;;;;;;3.92;3.03;;;;;23.50;99391.00;;;;2032398;29;20255;-67
2023/07/05 01:54:58;;;;;;;3.70;3.05;;;;;23.50;99386.00;;;;2046433;28;20324;-67
2023/07/05 01:56:09;;;;;;;3.88;3.53;;;;;23.50;99366.00;;;;2058089;28;20219;-67
2023/07/05 01:57:23;;;;;;;5.22;3.05;;;;;23.50;99365.00;;;;2046444;28;20204;-67
2023/07/05 01:58:28;;;;;;;4.03;3.00;;;;;23.50;99379.00;;;;2051021;28;20803;-67
2023/07/05 01:59:34;;;;;;;4.28;3.10;;;;;23.50;99374.00;;;;2049051;28;20217;-67
2023/07/05 02:00:36;;;;;;;3.42;2.90;;;;;23.40;99342.00;;;;2048047;28;20216;-67
2023/07/05 02:01:36;;;;;;;3.13;2.47;;;;;23.20;99368.00;;;;2056753;28;20230;-67
2023/07/05 02:02:38;;;;;;;4.10;3.13;;;;;23.50;99373.00;;;;2051606;28;20237;-67
2023/07/05 02:03:38;;;;;;;3.55;3.25;;;;;23.50;99379.00;;;;2057541;28;20211;-67
2023/07/05 02:04:39;;;;;;;3.93;2.90;;;;;23.50;99377.00;;;;2046886;28;20212;-67
2023/07/05 02:05:39;;;;;;;3.20;2.70;;;;;23.50;99368.00;;;;2046340;28;20696;-67
2023/07/05 02:06:40;;;;;;;3.50;3.20;;;;;23.50;99355.00;;;;2046065;28;20271;-67
2023/07/05 02:07:40;;;;;;;3.80;2.93;;;;;23.50;99355.00;;;;2045136;28;20269;-67
2023/07/05 02:08:42;;;;;;;2.60;2.40;;;;;23.50;99351.00;;;;2044363;28;20209;-67
2023/07/05 02:09:43;;;;;;;3.70;2.92;;;;;23.50;99356.00;;;;2041789;28;20216;-67
2023/07/05 02:10:44;;;;;;;3.53;2.72;;;;;23.50;99350.00;;;;2050246;28;20234;-67
2023/07/05 02:11:44;;;;;;;3.33;2.67;;;;;23.40;99356.00;;;;2067080;28;20259;-67
2023/07/05 02:12:44;;;;;;;3.70;2.57;;;;;23.40;99353.00;;;;2048701;28;20216;-67
2023/07/05 02:13:45;;;;;;;2.70;2.50;;;;;23.40;99349.00;;;;2062930;28;20671;-67
2023/07/05 02:14:45;;;;;;;4.00;2.60;;;;;23.50;99352.00;;;;2060616;28;20218;-67
2023/07/05 02:15:50;;;;;;;3.20;2.70;;;;;23.50;99349.00;;;;2060693;28;20288;-67
2023/07/05 02:16:50;;;;;;;3.17;2.53;;;;;23.50;99355.00;;;;2054793;28;20219;-67
2023/07/05 02:17:51;;;;;;;3.50;2.90;;;;;23.50;99351.00;;;;2048187;28;20207;-67
2023/07/05 02:18:51;;;;;;;4.03;2.80;;;;;23.50;99352.00;;;;2055490;28;20212;-67
2023/07/05 02:19:51;;;;;;;4.97;2.80;;;;;23.50;99349.00;;;;2067518;28;20237;-67
2023/07/05 02:20:54;;;;;;;3.73;2.47;;;;;23.50;99346.00;;;;2063989;28;20699;-67
2023/07/05 02:21:54;;;;;;;3.47;2.63;;;;;23.50;99339.00;;;;2054191;28;20302;-67
2023/07/05 02:22:55;;;;;;;4.50;2.80;;;;;23.50;99349.00;;;;2046914;28;20219;-67
2023/07/05 02:23:55;;;;;;;3.30;2.53;;;;;23.50;99349.00;;;;2055835;28;20223;-67
2023/07/05 02:24:56;;;;;;;3.30;2.13;;;;;23.50;99353.00;;;;2065462;28;20994;-67
2023/07/05 02:26:03;;;;;;;3.43;2.47;;;;;23.50;99366.00;;;;2060257;28;20284;-67
2023/07/05 02:27:03;;;;;;;2.45;2.10;;;;;23.50;99353.00;;;;2056225;28;20212;-67
2023/07/05 02:28:08;;;;;;;2.93;2.30;;;;;23.50;99350.00;;;;2052720;28;20235;-67
2023/07/05 02:29:09;;;;;;;2.60;2.20;;;;;23.50;99345.00;;;;2062583;28;20294;-67
2023/07/05 02:30:09;;;;;;;3.23;2.57;;;;;23.50;99334.00;;;;2059861;28;20207;-67
2023/07/05 02:31:11;;;;;;;2.60;2.40;;;;;23.50;99334.00;;;;2062624;28;20601;-67
2023/07/05 02:32:12;;;;;;;2.30;2.10;;;;;23.50;99334.00;;;;2060970;28;20227;-67
2023/07/05 02:33:12;;;;;;;3.33;2.40;;;;;23.50;99356.00;;;;2052919;28;20243;-67
2023/07/05 02:34:12;;;;;;;2.50;2.30;;;;;23.50;99344.00;;;;2059142;28;20214;-67
2023/07/05 02:35:13;;;;;;;2.80;2.60;;;;;23.50;99336.00;;;;2063006;28;20243;-67
2023/07/05 02:36:14;;;;;;;2.57;2.37;;;;;23.40;99339.00;;;;2065128;28;20214;-67
2023/07/05 02:37:14;;;;;;;2.47;2.27;;;;;23.50;99343.00;;;;2065225;28;20245;-67
2023/07/05 02:38:14;;;;;;;3.13;2.37;;;;;23.40;99340.00;;;;2057459;28;20454;-67
2023/07/05 02:39:15;;;;;;;4.03;2.27;;;;;23.50;99340.00;;;;2062833;28;20679;-67
2023/07/05 02:40:15;;;;;;;2.37;2.17;;;;;23.50;99341.00;;;;2061656;28;20742;-67
2023/07/05 02:41:15;;;;;;;3.43;2.60;;;;;23.40;99341.00;;;;2066681;28;20219;-67
2023/07/05 02:42:16;;;;;;;2.97;2.50;;;;;23.50;99351.00;;;;2057428;28;20234;-67
2023/07/05 02:43:16;;;;;;;2.23;1.93;;;;;23.50;99345.00;;;;2060214;28;20223;-67
2023/07/05 02:44:16;;;;;;;3.07;2.00;;;;;23.50;99348.00;;;;2067877;28;20269;-67
2023/07/05 02:45:17;;;;;;;3.77;2.30;;;;;23.50;99345.00;;;;2069635;28;20215;-67
2023/07/05 02:46:17;;;;;;;2.40;2.20;;;;;23.50;99354.00;;;;2064300;28;20284;-67
2023/07/05 02:47:19;;;;;;;2.97;1.90;;;;;23.50;99340.00;;;;2054710;28;20211;-67
2023/07/05 02:48:20;;;;;;;2.63;2.03;;;;;23.50;99343.00;;;;2062400;28;20241;-67
2023/07/05 02:49:20;;;;;;;3.00;2.63;;;;;23.40;99343.00;;;;2067260;28;20843;-67
2023/07/05 02:50:20;;;;;;;2.60;2.20;;;;;23.50;99345.00;;;;2068490;28;20217;-67
2023/07/05 02:51:21;;;;;;;2.80;2.00;;;;;23.50;99341.00;;;;2064844;28;20645;-67
2023/07/05 02:52:21;;;;;;;1.90;1.60;;;;;23.40;99335.00;;;;2055478;28;20219;-67
2023/07/05 02:53:21;;;;;;;2.57;2.30;;;;;23.40;99333.00;;;;2064565;28;20573;-67
2023/07/05 02:54:22;;;;;;;2.60;2.40;;;;;23.40;99343.00;;;;2068608;28;20582;-67
2023/07/05 02:55:22;;;;;;;2.90;2.33;;;;;23.50;99346.00;;;;2064899;28;21240;-67
2023/07/05 02:56:22;;;;;;;2.20;1.80;;;;;23.50;99330.00;;;;2064876;28;20225;-67
2023/07/05 02:57:23;;;;;;;2.60;2.20;;;;;23.50;99335.00;;;;2056035;28;20211;-67
2023/07/05 02:58:24;;;;;;;2.80;1.77;;;;;23.50;99341.00;;;;2064996;28;20222;-67
2023/07/05 02:59:24;;;;;;;2.53;2.10;;;;;23.50;99339.00;;;;2064803;28;20473;-67
2023/07/05 03:00:25;;;;;;;3.30;2.37;;;;;23.50;99354.00;;;;2065311;28;20245;-67
2023/07/05 03:01:25;;;;;;;2.20;1.90;;;;;23.50;99344.00;;;;2064843;28;20223;-67
2023/07/05 03:02:26;;;;;;;2.50;2.30;;;;;23.50;99346.00;;;;2055339;28;20218;-67
2023/07/05 03:03:26;;;;;;;2.20;1.70;;;;;23.50;99339.00;;;;2059932;28;20219;-67
2023/07/05 03:04:27;;;;;;;2.07;1.87;;;;;23.50;99350.00;;;;2060886;28;20206;-67
2023/07/05 03:05:27;;;;;;;2.45;1.60;;;;;23.50;99352.00;;;;2064144;28;20705;-67
2023/07/05 03:06:28;;;;;;;2.00;1.80;;;;;23.50;99339.00;;;;2068418;28;20348;-67
2023/07/05 03:07:28;;;;;;;1.73;1.63;;;;;23.50;99346.00;;;;2052639;28;20206;-67
2023/07/05 03:08:29;;;;;;;1.87;1.70;;;;;23.50;99346.00;;;;2066881;28;20221;-67
2023/07/05 03:09:29;;;;;;;2.73;1.87;;;;;23.50;99353.00;;;;2066956;28;20210;-67
2023/07/05 03:10:29;;;;;;;2.20;1.77;;;;;23.50;99352.00;;;;2068630;28;20748;-67
2023/07/05 03:11:29;;;;;;;2.00;1.70;;;;;23.50;99352.00;;;;2066851;28;20238;-67
2023/07/05 03:12:30;;;;;;;1.87;1.60;;;;;23.50;99347.00;;;;2054666;28;20351;-67
2023/07/05 03:13:31;;;;;;;2.67;1.90;;;;;23.50;99344.00;;;;2067628;28;20247;-67
2023/07/05 03:14:32;;;;;;;2.13;1.92;;;;;23.50;99340.00;;;;2063827;28;20211;-67
2023/07/05 03:15:32;;;;;;;3.97;2.10;;;;;23.50;99335.00;;;;2059019;28;20741;-67
2023/07/05 03:16:32;;;;;;;1.80;1.70;;;;;23.40;99333.00;;;;2064444;28;21928;-67
2023/07/05 03:17:33;;;;;;;2.10;1.90;;;;;23.50;99345.00;;;;2052593;28;20203;-67
2023/07/05 03:18:34;;;;;;;2.50;1.70;;;;;23.50;99339.00;;;;2056503;28;20212;-67
2023/07/05 03:19:34;;;;;;;1.97;1.70;;;;;23.50;99354.00;;;;2069538;28;20217;-67
2023/07/05 03:20:35;;;;;;;2.10;1.80;;;;;23.40;99357.00;;;;2062763;28;20696;-67
2023/07/05 03:21:35;;;;;;;2.90;1.63;;;;;23.50;99359.00;;;;2065567;28;20215;-67
2023/07/05 03:22:35;;;;;;;2.33;1.70;;;;;23.50;99353.00;;;;2055692;28;20221;-67
2023/07/05 03:23:35;;;;;;;2.07;1.83;;;;;23.50;99351.00;;;;2062966;28;20199;-67
2023/07/05 03:24:36;;;;;;;1.97;1.67;;;;;23.50;99345.00;;;;2055245;28;20210;-67
2023/07/05 03:25:36;;;;;;;2.50;1.90;;;;;23.50;99355.00;;;;2059305;28;20219;-67
2023/07/05 03:26:36;;;;;;;4.10;2.03;;;;;23.50;99352.00;;;;2058034;28;20235;-67
2023/07/05 03:27:37;;;;;;;2.17;1.83;;;;;23.50;99358.00;;;;2057932;28;20267;-67
2023/07/05 03:28:37;;;;;;;1.70;1.60;;;;;23.50;99357.00;;;;2065352;28;20258;-67
2023/07/05 03:29:38;;;;;;;2.90;1.70;;;;;23.40;99362.00;;;;2058233;28;20216;-67
2023/07/05 03:30:38;;;;;;;4.67;2.20;;;;;23.50;99372.00;;;;2059545;28;20242;-67
2023/07/05 03:31:38;;;;;;;2.40;2.00;;;;;23.40;99364.00;;;;2064761;28;20254;-67
2023/07/05 03:32:43;;;;;;;2.30;1.80;;;;;23.50;99368.00;;;;2052990;28;20274;-67
2023/07/05 03:33:43;;;;;;;2.15;1.80;;;;;23.50;99375.00;;;;2061277;28;20553;-67
2023/07/05 03:34:44;;;;;;;2.10;1.90;;;;;23.40;99365.00;;;;2058687;28;20207;-67
2023/07/05 03:35:52;;;;;;;2.30;1.60;;;;;23.50;99387.00;;;;2061989;28;20217;-67
2023/07/05 03:36:53;;;;;;;3.25;2.05;;;;;23.50;99384.00;;;;2057684;28;20648;-67
2023/07/05 03:37:53;;;;;;;1.77;1.63;;;;;23.50;99379.00;;;;2050496;28;20221;-67
2023/07/05 03:38:53;;;;;;;1.97;1.77;;;;;23.50;99381.00;;;;2065088;28;20218;-67
2023/07/05 03:39:54;;;;;;;2.73;1.87;;;;;23.50;99384.00;;;;2057724;28;20277;-67
2023/07/05 03:41:04;;;;;;;2.70;1.90;;;;;23.50;99389.00;;;;2070899;28;20296;-67
2023/07/05 03:42:05;;;;;;;3.55;2.03;;;;;23.40;99389.00;;;;2061957;28;20553;-67
2023/07/05 03:43:05;;;;;;;2.03;1.83;;;;;23.50;99388.00;;;;2058363;28;20257;-67
2023/07/05 03:44:06;;;;;;;1.80;1.60;;;;;23.40;99385.00;;;;2062457;28;20220;-67
2023/07/05 03:45:06;;;;;;;2.63;2.10;;;;;23.40;99400.00;;;;2061348;28;20259;-67
2023/07/05 03:46:09;;;;;;;1.97;1.80;;;;;23.40;99418.00;;;;2065977;28;20210;-67
2023/07/05 03:47:09;;;;;;;1.73;1.63;;;;;23.50;99425.00;;;;2065863;28;20231;-67
2023/07/05 03:48:09;;;;;;;2.60;2.13;;;;;23.50;99418.00;;;;2053607;28;20383;-67
2023/07/05 03:49:10;;;;;;;2.13;1.93;;;;;23.40;99438.00;;;;2069506;28;20238;-67
2023/07/05 03:50:10;;;;;;;2.20;1.60;;;;;23.50;99435.00;;;;2063545;28;20210;-67
2023/07/05 03:51:12;;;;;;;2.43;1.67;;;;;23.50;99433.00;;;;2056422;28;20220;-67
2023/07/05 03:52:13;;;;;;;7.75;1.90;;;;;23.50;99426.00;;;;2060198;28;20218;-67
2023/07/05 03:53:14;;;;;;;2.60;1.70;;;;;23.50;99448.00;;;;2049429;28;20216;-67
2023/07/05 03:54:14;;;;;;;2.00;1.80;;;;;23.40;99434.00;;;;2067486;28;21178;-67
2023/07/05 03:55:14;;;;;;;1.80;1.40;;;;;23.40;99449.00;;;;2063440;28;20262;-67
2023/07/05 03:56:16;;;;;;;2.50;1.93;;;;;23.50;99451.00;;;;2056954;28;20286;-67
2023/07/05 03:57:17;;;;;;;1.90;1.67;;;;;23.50;99456.00;;;;2054884;28;20257;-67
2023/07/05 03:58:17;;;;;;;3.13;1.37;;;;;23.40;99453.00;;;;2065180;28;20575;-67
2023/07/05 03:59:17;;;;;;;5.70;1.87;;;;;23.40;99467.00;;;;2061806;28;20218;-67
2023/07/05 04:00:18;;;;;;;2.80;1.67;;;;;23.40;99465.00;;;;2070414;28;20221;-67
2023/07/05 04:01:20;;;;;;;2.10;1.50;;;;;23.50;99471.00;;;;2064656;28;20223;-67
2023/07/05 04:02:21;;;;;;;6.00;2.30;;;;;23.40;99465.00;;;;2054233;28;20219;-67
2023/07/05 04:03:21;;;;;;;2.30;1.60;;;;;23.40;99468.00;;;;2065472;28;20253;-67
2023/07/05 04:04:21;;;;;;;2.43;1.47;;;;;23.40;99484.00;;;;2058250;28;20219;-67
2023/07/05 04:05:23;;;;;;;2.37;1.77;;;;;23.40;99471.00;;;;2064904;28;20222;-67
2023/07/05 04:06:24;;;;;;;2.75;1.75;;;;;23.40;99479.00;;;;2063148;28;20713;-67
2023/07/05 04:07:26;;;;;;;1.65;1.50;;;;;23.40;99470.00;;;;2053541;28;20223;-67
2023/07/05 04:08:26;;;;;;;2.30;1.60;;;;;23.40;99480.00;;;;2060308;28;20234;-67
2023/07/05 04:09:26;;;;;;;1.90;1.60;;;;;23.40;99477.00;;;;2062626;28;20550;-67
2023/07/05 04:10:27;;;;;;;2.10;1.33;;;;;23.40;99479.00;;;;2063248;28;20660;-67
2023/07/05 04:11:27;;;;;;;1.43;1.20;;;;;23.40;99485.00;;;;2058209;28;20238;-67
2023/07/05 04:12:27;;;;;;;2.77;1.30;;;;;23.40;99480.00;;;;2046073;28;20211;-67
2023/07/05 04:13:28;;;;;;;2.87;1.70;;;;;23.40;99492.00;;;;2053834;28;20219;-67
2023/07/05 04:14:29;;;;;;;1.70;1.50;;;;;23.40;99479.00;;;;2053199;28;20250;-67
2023/07/05 04:15:29;;;;;;;3.00;1.73;;;;;23.40;99490.00;;;;2056870;28;20573;-67
2023/07/05 04:16:30;;;;;;;2.97;2.00;;;;;23.40;99491.00;;;;2060035;28;20226;-67
2023/07/05 04:17:30;;;;;;;3.63;1.40;;;;;23.40;99483.00;;;;2046248;28;20235;-67
2023/07/05 04:18:31;;;;;;;2.30;1.70;;;;;23.40;99480.00;;;;2061907;28;20222;-67
2023/07/05 04:19:32;;;;;;;2.00;1.40;;;;;23.40;99489.00;;;;2063096;28;20310;-67
2023/07/05 04:20:32;;;;;;;6.40;1.83;;;;;23.40;99485.00;;;;2062589;28;20207;-67
2023/07/05 04:21:32;;;;;;;3.93;1.50;;;;;23.40;99480.00;;;;2052542;28;20290;-67
2023/07/05 04:22:38;;;;;;;2.93;1.60;;;;;23.40;99477.00;;;;2048018;28;20214;-67
2023/07/05 04:23:39;;;;;;;1.95;1.50;;;;;23.40;99484.00;;;;2049431;28;20224;-66
2023/07/05 04:24:39;;;;;;;3.40;1.50;;;;;23.40;99482.00;;;;2047026;28;20621;-68
2023/07/05 04:25:40;;;;;;;3.10;1.57;;;;;23.50;99494.00;;;;2058851;28;20459;-67
2023/07/05 04:26:40;;;;;;;2.60;1.40;;;;;23.50;99487.00;;;;2059479;28;20282;-67
2023/07/05 04:27:40;;;;;;;2.00;1.23;;;;;23.50;99485.00;;;;2048791;28;20619;-67
2023/07/05 04:28:41;;;;;;;2.63;1.60;;;;;23.40;99483.00;;;;2063210;28;20547;-67
2023/07/05 04:29:41;;;;;;;2.30;1.90;;;;;23.40;99495.00;;;;2057028;28;20792;-67
2023/07/05 04:30:42;;;;;;;2.90;1.70;;;;;23.40;99484.00;;;;2062644;28;20450;-67
2023/07/05 04:31:42;;;;;;;2.40;1.53;;;;;23.40;99482.00;;;;2062925;28;20219;-67
2023/07/05 04:32:42;;;;;;;2.60;1.50;;;;;23.40;99485.00;;;;2057263;28;20229;-67
2023/07/05 04:33:43;;;;;;;6.30;1.80;;;;;23.40;99493.00;;;;2065226;28;20246;-67
2023/07/05 04:34:44;;;;;;;3.43;1.70;;;;;23.40;99487.00;;;;2064144;28;20226;-67
2023/07/05 04:35:48;;;;;;;1.70;1.33;;;;;23.40;99503.00;;;;2065147;28;20477;-67
2023/07/05 04:36:48;;;;;;;1.80;1.38;;;;;23.40;99493.00;;;;2059841;28;20261;-67
2023/07/05 04:37:48;;;;;;;3.20;2.00;;;;;23.40;99501.00;;;;2046900;28;20224;-67
2023/07/05 04:38:49;;;;;;;4.70;1.83;;;;;23.50;99498.00;;;;2061936;28;20227;-67
2023/07/05 04:39:49;;;;;;;4.67;1.50;;;;;23.50;99500.00;;;;2062763;28;20215;-67
2023/07/05 04:40:49;;;;;;;4.00;1.53;;;;;23.40;99499.00;;;;2067915;28;20234;-67
2023/07/05 04:41:50;;;;;;;2.37;1.57;;;;;23.40;99500.00;;;;2062312;28;20241;-67
2023/07/05 04:42:50;;;;;;;3.30;1.90;;;;;23.40;99502.00;;;;2046301;28;20738;-67
2023/07/05 04:43:54;;;;;;;3.40;1.80;;;;;23.40;99501.00;;;;2056253;28;20657;-67
2023/07/05 04:44:54;;;;;;;3.38;1.45;;;;;23.40;99508.00;;;;2054121;28;20218;-67
2023/07/05 04:45:56;;;;;;;2.90;1.63;;;;;23.40;99506.00;;;;2061094;28;20246;-67
2023/07/05 04:46:56;;;;;;;2.75;1.75;;;;;23.40;99513.00;;;;2062148;28;20261;-67
2023/07/05 04:47:56;;;;;;;8.13;2.00;;;;;23.40;99514.00;;;;2053409;28;20203;-67
2023/07/05 04:48:57;;;;;;;2.57;2.13;;;;;23.40;99509.00;;;;2059541;28;20215;-67
2023/07/05 04:49:57;;;;;;;2.67;1.57;;;;;23.40;99502.00;;;;2064309;28;20225;-67
2023/07/05 04:50:57;;;;;;;3.90;1.57;;;;;23.40;99505.00;;;;2057950;28;20703;-67
2023/07/05 04:51:58;;;;;;;2.63;1.73;;;;;23.40;99521.00;;;;2059679;28;20226;-67
2023/07/05 04:52:58;;;;;;;2.60;1.40;;;;;23.40;99506.00;;;;2045128;28;20713;-68
2023/07/05 04:53:59;;;;;;;2.87;1.30;;;;;23.40;99504.00;;;;2062886;28;20210;-68
2023/07/05 04:54:59;;;;;;;2.73;1.60;;;;;23.40;99496.00;;;;2064966;28;20253;-68
2023/07/05 04:55:59;;;;;;;2.10;1.90;;;;;23.40;99505.00;;;;2059553;28;20258;-68
2023/07/05 04:57:00;;;;;;;2.43;1.60;;;;;23.40;99513.00;;;;2066205;28;20241;-68
2023/07/05 04:58:03;;;;;;;2.30;1.47;;;;;23.40;99503.00;;;;2046529;28;20215;-68
2023/07/05 04:59:03;;;;;;;3.63;1.98;;;;;23.40;99501.00;;;;2055616;28;20211;-68
2023/07/05 05:00:05;;;;;;;1.77;1.43;;;;;23.40;99505.00;;;;2057349;28;20215;-68
2023/07/05 05:01:06;;;;;;;2.88;1.90;;;;;23.40;99497.00;;;;2057432;28;20793;-68
2023/07/05 05:02:08;;;;;;;4.05;2.08;;;;;23.40;99499.00;;;;2059412;28;20215;-68
2023/07/05 05:03:08;;;;;;;6.43;5.33;;;;;23.40;99498.00;;;;2039565;28;20240;-68
2023/07/05 05:04:08;;;;;;;7.87;7.07;;;;;23.40;99499.00;;;;2062874;28;21308;-68
2023/07/05 05:05:09;;;;;;;7.93;7.07;;;;;23.40;99497.00;;;;2062007;28;20211;-68
2023/07/05 05:06:09;;;;;;;14.90;13.40;;;;;23.40;99502.00;;;;2063635;28;20229;-68
2023/07/05 05:07:09;;;;;;;25.40;21.57;;;;;23.40;99494.00;;;;2068592;28;20217;-68
2023/07/05 05:08:10;;;;;;;35.97;30.10;;;;;23.40;99502.00;;;;2052428;28;20737;-68
2023/07/05 05:09:11;;;;;;;34.20;30.50;;;;;23.40;99503.00;;;;2061495;28;20215;-68
2023/07/05 05:10:11;;;;;;;39.97;34.37;;;;;23.40;99496.00;;;;2060759;28;20840;-68
2023/07/05 05:11:11;;;;;;;43.97;34.33;;;;;23.40;99504.00;;;;2057568;28;20616;-68
2023/07/05 05:12:12;;;;;;;48.60;38.87;;;;;23.40;99496.00;;;;2062658;28;20642;-68
2023/07/05 05:13:12;;;;;;;49.07;39.53;;;;;23.40;99491.00;;;;2051908;28;20650;-68